createdAt,value
2023-01-23T00:01:34.953Z,21.50
2023-01-23T00:04:02.662Z,20.65
2023-01-23T00:06:30.088Z,22.30
2023-01-23T00:08:58.296Z,25.15
2023-01-23T00:11:30.450Z,21.88
2023-01-23T00:16:29.841Z,23.10
2023-01-23T00:18:57.989Z,20.77
2023-01-23T00:21:28.726Z,21.08
2023-01-23T00:23:58.246Z,23.90
2023-01-23T00:26:28.799Z,21.48
2023-01-23T00:28:57.415Z,21.75
2023-01-23T00:31:34.655Z,25.48
2023-01-23T00:34:07.053Z,21.80
2023-01-23T00:36:38.747Z,22.92
2023-01-23T00:39:22.580Z,20.45
2023-01-23T00:41:52.381Z,22.75
2023-01-23T00:44:19.538Z,22.75
2023-01-23T00:46:49.252Z,21.15
2023-01-23T00:49:17.956Z,23.38
2023-01-23T00:51:46.399Z,20.13
2023-01-23T00:54:13.563Z,21.95
2023-01-23T00:56:40.720Z,23.70
2023-01-23T00:59:10.301Z,22.10
2023-01-23T01:01:37.422Z,19.70
2023-01-23T01:04:07.164Z,20.45
2023-01-23T01:06:34.369Z,27.33
2023-01-23T01:09:01.632Z,19.35
2023-01-23T01:11:28.955Z,20.50
2023-01-23T01:13:56.295Z,19.08
2023-01-23T01:16:30.891Z,20.15
2023-01-23T01:18:58.283Z,17.98
2023-01-23T01:21:25.334Z,16.38
2023-01-23T01:23:55.019Z,19.05
2023-01-23T01:26:23.138Z,17.83
2023-01-23T01:28:50.370Z,19.23
2023-01-23T01:31:17.825Z,18.10
2023-01-23T01:33:45.465Z,16.73
2023-01-23T01:36:16.889Z,18.42
2023-01-23T01:38:44.904Z,18.63
2023-01-23T01:41:12.545Z,18.25
2023-01-23T01:43:40.879Z,19.90
2023-01-23T01:46:21.199Z,14.15
2023-01-23T01:49:08.384Z,15.20
2023-01-23T01:51:56.936Z,14.32
2023-01-23T01:54:54.432Z,16.58
2023-01-23T01:57:23.389Z,17.63
2023-01-23T01:59:58.820Z,16.02
2023-01-23T02:02:35.555Z,15.05
2023-01-23T02:05:11.754Z,16.83
2023-01-23T02:07:54.545Z,14.93
2023-01-23T02:10:22.854Z,14.82
2023-01-23T02:12:52.269Z,22.25
2023-01-23T02:15:22.792Z,17.65
2023-01-23T02:17:53.338Z,14.95
2023-01-23T02:20:27.997Z,16.42
2023-01-23T02:23:48.319Z,15.32
2023-01-23T02:26:33.027Z,14.85
2023-01-23T02:29:00.625Z,12.65
2023-01-23T02:31:30.383Z,17.00
2023-01-23T02:34:00.122Z,15.07
2023-01-23T02:36:33.117Z,17.05
2023-01-23T02:39:13.906Z,13.75
2023-01-23T02:41:47.933Z,16.23
2023-01-23T02:44:28.967Z,13.55
2023-01-23T02:47:01.545Z,13.40
2023-01-23T02:49:29.600Z,15.95
2023-01-23T02:51:57.434Z,17.30
2023-01-23T02:54:25.401Z,14.68
2023-01-23T02:56:52.802Z,13.60
2023-01-23T02:59:38.859Z,13.70
2023-01-23T03:02:06.347Z,14.88
2023-01-23T03:04:36.021Z,17.75
2023-01-23T03:07:03.637Z,17.00
2023-01-23T03:09:31.040Z,15.45
2023-01-23T03:11:58.196Z,14.27
2023-01-23T03:14:26.235Z,12.13
2023-01-23T03:16:55.196Z,12.57
2023-01-23T03:19:25.272Z,15.45
2023-01-23T03:21:53.553Z,16.08
2023-01-23T03:24:21.517Z,14.98
2023-01-23T03:26:50.091Z,13.65
2023-01-23T03:29:42.220Z,11.07
2023-01-23T03:32:12.150Z,13.38
2023-01-23T03:34:39.709Z,16.35
2023-01-23T03:37:09.525Z,16.15
2023-01-23T03:39:55.516Z,15.10
2023-01-23T03:42:23.379Z,16.20
2023-01-23T03:44:55.050Z,22.80
2023-01-23T03:47:26.451Z,22.88
2023-01-23T03:49:53.821Z,23.42
2023-01-23T03:52:21.249Z,25.65
2023-01-23T03:54:48.479Z,17.70
2023-01-23T03:57:15.713Z,21.63
2023-01-23T03:59:42.842Z,15.48
2023-01-23T04:02:10.160Z,13.93
2023-01-23T04:04:40.047Z,14.88
2023-01-23T04:07:07.378Z,13.68
2023-01-23T04:09:34.619Z,14.07
2023-01-23T04:12:01.974Z,15.15
2023-01-23T04:14:37.414Z,12.50
2023-01-23T04:17:06.719Z,12.35
2023-01-23T04:19:34.708Z,13.32
2023-01-23T04:22:02.400Z,12.82
2023-01-23T04:24:29.565Z,11.95
2023-01-23T04:26:56.792Z,13.75
2023-01-23T04:29:23.963Z,11.88
2023-01-23T04:31:51.158Z,12.98
2023-01-23T04:34:18.247Z,12.30
2023-01-23T04:36:45.352Z,14.43
2023-01-23T04:39:12.545Z,11.77
2023-01-23T04:41:39.703Z,13.93
2023-01-23T04:44:22.124Z,13.43
2023-01-23T04:49:18.905Z,14.32
2023-01-23T04:51:50.387Z,13.15
2023-01-23T04:54:18.910Z,13.30
2023-01-23T04:56:47.358Z,13.18
2023-01-23T04:59:16.814Z,12.90
2023-01-23T05:01:44.344Z,16.17
2023-01-23T05:04:11.500Z,16.35
2023-01-23T05:06:39.003Z,14.43
2023-01-23T05:09:07.171Z,13.57
2023-01-23T05:11:34.589Z,14.93
2023-01-23T05:14:02.151Z,14.98
2023-01-23T05:16:29.296Z,16.58
2023-01-23T05:18:56.456Z,18.02
2023-01-23T05:21:23.668Z,15.75
2023-01-23T05:23:55.821Z,19.42
2023-01-23T05:26:22.978Z,14.85
2023-01-23T05:28:52.664Z,16.58
2023-01-23T05:31:20.169Z,15.25
2023-01-23T05:33:49.785Z,15.95
2023-01-23T05:36:18.541Z,17.75
2023-01-23T05:38:46.064Z,21.45
2023-01-23T05:41:16.209Z,16.83
2023-01-23T05:43:44.568Z,19.65
2023-01-23T05:46:14.867Z,20.13
2023-01-23T05:48:42.438Z,16.63
2023-01-23T05:51:09.668Z,20.25
2023-01-23T05:53:36.885Z,16.00
2023-01-23T05:56:12.780Z,19.20
2023-01-23T05:58:40.085Z,18.98
2023-01-23T06:01:07.325Z,15.43
2023-01-23T06:03:34.768Z,15.90
2023-01-23T06:06:02.354Z,16.08
2023-01-23T06:08:29.779Z,16.83
2023-01-23T06:11:01.815Z,19.23
2023-01-23T06:13:31.532Z,22.55
2023-01-23T06:15:58.962Z,18.75
2023-01-23T06:18:26.192Z,18.05
2023-01-23T06:21:01.322Z,19.73
2023-01-23T06:23:29.436Z,16.75
2023-01-23T06:26:02.981Z,17.00
2023-01-23T06:28:30.365Z,18.23
2023-01-23T06:31:02.735Z,17.50
2023-01-23T06:33:31.216Z,24.63
2023-01-23T06:36:03.430Z,19.00
2023-01-23T06:40:58.672Z,35.58
2023-01-23T06:43:26.663Z,32.75
2023-01-23T06:45:53.979Z,20.08
2023-01-23T06:48:22.033Z,26.27
2023-01-23T06:50:51.713Z,22.45
2023-01-23T06:53:19.535Z,28.38
2023-01-23T06:55:49.097Z,20.80
2023-01-23T06:58:16.396Z,19.05
2023-01-23T07:00:44.685Z,20.77
2023-01-23T07:03:14.445Z,20.42
2023-01-23T07:05:43.559Z,19.58
2023-01-23T07:08:10.709Z,21.98
2023-01-23T07:10:38.948Z,19.08
2023-01-23T07:13:11.744Z,19.00
2023-01-23T07:15:41.016Z,22.15
2023-01-23T07:18:09.864Z,17.50
2023-01-23T07:20:39.580Z,18.58
2023-01-23T07:23:06.805Z,20.30
2023-01-23T07:25:34.185Z,21.33
2023-01-23T07:28:04.057Z,21.33
2023-01-23T07:30:31.785Z,24.13
2023-01-23T07:32:59.121Z,30.20
2023-01-23T07:35:27.330Z,22.95
2023-01-23T07:37:54.766Z,28.58
2023-01-23T07:40:22.303Z,23.65
2023-01-23T07:42:49.626Z,21.52
2023-01-23T07:45:16.912Z,21.55
2023-01-23T07:47:45.641Z,25.35
2023-01-23T07:50:13.875Z,19.27
2023-01-23T07:52:41.135Z,19.05
2023-01-23T07:55:11.145Z,23.70
2023-01-23T07:57:38.193Z,24.00
2023-01-23T08:00:06.286Z,30.05
2023-01-23T08:02:33.517Z,40.53
2023-01-23T08:05:00.741Z,41.42
2023-01-23T08:07:28.407Z,43.40
2023-01-23T08:09:55.505Z,42.25
2023-01-23T08:12:22.742Z,38.20
2023-01-23T08:14:49.897Z,38.95
2023-01-23T08:17:19.570Z,24.02
2023-01-23T08:19:46.750Z,28.92
2023-01-23T08:22:13.926Z,24.27
2023-01-23T08:24:43.514Z,25.45
2023-01-23T08:27:12.304Z,25.25
2023-01-23T08:29:41.892Z,20.05
2023-01-23T08:32:09.201Z,25.65
2023-01-23T08:34:38.408Z,23.48
2023-01-23T08:37:05.437Z,22.33
2023-01-23T08:39:32.652Z,21.95
2023-01-23T08:41:59.685Z,20.00
2023-01-23T08:44:26.920Z,20.15
2023-01-23T08:46:54.112Z,23.23
2023-01-23T08:49:21.264Z,17.65
2023-01-23T08:51:50.645Z,20.52
2023-01-23T08:54:17.805Z,21.00
2023-01-23T08:56:44.941Z,24.98
2023-01-23T08:59:12.014Z,21.60
2023-01-23T09:01:39.274Z,27.73
2023-01-23T09:04:06.798Z,26.33
2023-01-23T09:06:34.037Z,33.13
2023-01-23T09:09:01.132Z,30.23
2023-01-23T09:11:30.832Z,31.60
2023-01-23T09:14:00.381Z,32.45
2023-01-23T09:16:27.745Z,25.23
2023-01-23T09:18:57.795Z,30.95
2023-01-23T09:21:24.992Z,25.92
2023-01-23T09:23:52.038Z,28.60
2023-01-23T09:26:20.045Z,29.83
2023-01-23T09:28:47.390Z,33.95
2023-01-23T09:31:15.006Z,36.67
2023-01-23T09:33:42.865Z,36.05
2023-01-23T09:36:10.811Z,39.53
2023-01-23T09:38:38.120Z,39.22
2023-01-23T09:41:23.527Z,29.63
2023-01-23T09:43:57.996Z,33.50
2023-01-23T09:46:36.752Z,30.63
2023-01-23T09:49:58.629Z,30.33
2023-01-23T09:52:42.105Z,25.38
2023-01-23T09:55:33.348Z,26.23
2023-01-23T09:58:03.847Z,29.92
2023-01-23T10:00:33.794Z,27.77
2023-01-23T10:03:12.187Z,28.33
2023-01-23T10:05:53.335Z,31.00
2023-01-23T10:08:35.379Z,31.85
2023-01-23T10:11:36.125Z,28.45
2023-01-23T10:14:30.772Z,26.55
2023-01-23T10:17:45.129Z,27.95
2023-01-23T10:20:20.135Z,29.35
2023-01-23T10:23:10.963Z,32.13
2023-01-23T10:25:41.103Z,26.88
2023-01-23T10:28:39.409Z,30.17
2023-01-23T10:31:48.440Z,29.52
2023-01-23T10:34:44.276Z,29.52
2023-01-23T10:37:24.410Z,26.25
2023-01-23T10:40:08.179Z,31.40
2023-01-23T10:42:36.765Z,30.27
2023-01-23T10:45:05.230Z,30.98
2023-01-23T10:47:42.985Z,34.50
2023-01-23T10:50:11.725Z,30.70
2023-01-23T10:52:44.972Z,29.65
2023-01-23T10:55:23.858Z,27.38
2023-01-23T10:57:57.047Z,23.50
2023-01-23T11:00:45.732Z,23.00
2023-01-23T11:03:21.913Z,28.33
2023-01-23T11:06:25.999Z,30.30
2023-01-23T11:09:02.632Z,46.38
2023-01-23T11:11:32.493Z,41.90
2023-01-23T11:14:14.019Z,33.20
2023-01-23T11:16:43.504Z,32.73
2023-01-23T11:19:11.675Z,29.10
2023-01-23T11:21:55.959Z,31.05
2023-01-23T11:24:38.631Z,28.77
2023-01-23T11:27:26.592Z,34.78
2023-01-23T11:30:08.734Z,39.88
2023-01-23T11:33:01.963Z,34.97
2023-01-23T11:35:48.470Z,36.28
2023-01-23T11:38:30.281Z,32.28
2023-01-23T11:40:58.348Z,29.30
2023-01-23T11:43:25.639Z,32.75
2023-01-23T11:46:41.791Z,36.80
2023-01-23T11:49:27.242Z,30.30
2023-01-23T11:52:27.550Z,36.60
2023-01-23T11:55:03.564Z,36.47
2023-01-23T11:58:14.716Z,34.28
2023-01-23T12:01:09.313Z,33.92
2023-01-23T12:04:22.883Z,32.03
2023-01-23T12:07:18.347Z,30.80
2023-01-23T12:09:57.236Z,29.33
2023-01-23T12:13:24.209Z,32.58
2023-01-23T12:16:37.162Z,36.20
2023-01-23T12:22:10.239Z,37.83
2023-01-23T12:25:01.579Z,37.08
2023-01-23T12:27:44.362Z,38.65
2023-01-23T12:30:12.975Z,40.83
2023-01-23T12:32:57.128Z,36.30
2023-01-23T12:36:06.046Z,46.35
2023-01-23T12:38:50.566Z,37.72
2023-01-23T12:41:48.670Z,37.78
2023-01-23T12:44:38.266Z,40.13
2023-01-23T12:47:25.429Z,41.88
2023-01-23T12:50:20.354Z,39.30
2023-01-23T12:53:12.376Z,37.85
2023-01-23T12:56:34.480Z,38.08
2023-01-23T12:59:28.867Z,36.88
2023-01-23T13:02:29.243Z,35.55
2023-01-23T13:05:28.605Z,37.33
2023-01-23T13:08:14.842Z,33.45
2023-01-23T13:11:23.510Z,34.05
2023-01-23T13:13:53.151Z,33.60
2023-01-23T13:16:23.762Z,32.45
2023-01-23T13:19:13.665Z,33.40
2023-01-23T13:22:02.839Z,30.95
2023-01-23T13:25:13.401Z,29.77
2023-01-23T13:28:22.035Z,35.50
2023-01-23T13:31:04.194Z,32.95
2023-01-23T13:33:34.145Z,29.48
2023-01-23T13:36:33.262Z,28.38
2023-01-23T13:39:25.209Z,28.83
2023-01-23T13:42:12.870Z,28.88
2023-01-23T13:45:29.268Z,26.85
2023-01-23T14:20:19.457Z,41.78
2023-01-23T14:22:46.737Z,44.13
2023-01-23T14:25:18.546Z,45.70
2023-01-23T14:27:54.453Z,46.00
2023-01-23T14:30:28.281Z,57.00
2023-01-23T14:32:56.384Z,61.10
2023-01-23T14:35:34.074Z,50.42
2023-01-23T14:38:07.063Z,51.53
2023-01-23T14:40:49.302Z,48.60
2023-01-23T14:43:27.829Z,39.17
2023-01-23T14:46:12.572Z,44.92
2023-01-23T14:48:44.022Z,39.33
2023-01-23T14:51:28.757Z,47.93
2023-01-23T14:54:10.005Z,43.65
2023-01-23T14:56:39.767Z,38.42
2023-01-23T14:59:42.091Z,28.98
2023-01-23T15:02:34.353Z,37.08
2023-01-23T15:05:14.332Z,31.63
2023-01-23T15:08:04.266Z,30.90
2023-01-23T15:10:43.912Z,31.38
2023-01-23T15:13:52.827Z,35.92
2023-01-23T15:16:35.081Z,55.03
2023-01-23T15:19:21.473Z,58.17
2023-01-23T15:21:49.469Z,56.30
2023-01-23T15:24:19.447Z,48.42
2023-01-23T15:27:37.280Z,46.30
2023-01-23T15:30:49.213Z,34.17
2023-01-23T15:33:40.298Z,40.15
2023-01-23T15:36:20.209Z,41.10
2023-01-23T15:38:47.741Z,37.08
2023-01-23T15:41:17.264Z,38.58
2023-01-23T15:43:46.756Z,33.72
2023-01-23T15:46:14.179Z,37.67
2023-01-23T15:48:41.292Z,42.50
2023-01-23T15:51:12.012Z,37.83
2023-01-23T15:53:39.345Z,36.15
2023-01-23T15:56:29.727Z,37.40
2023-01-23T15:58:56.928Z,43.45
2023-01-23T16:01:24.091Z,40.03
2023-01-23T16:03:53.680Z,46.55
2023-01-23T16:06:24.379Z,44.17
2023-01-23T16:09:00.948Z,47.30
2023-01-23T16:11:35.565Z,46.28
2023-01-23T16:14:03.117Z,42.63
2023-01-23T16:16:30.289Z,43.08
2023-01-23T16:18:57.498Z,40.70
2023-01-23T16:21:30.463Z,38.42
2023-01-23T16:23:59.001Z,41.47
2023-01-23T16:26:28.327Z,45.95
2023-01-23T16:29:12.116Z,45.25
2023-01-23T16:31:40.663Z,49.22
2023-01-23T16:34:07.808Z,54.10
2023-01-23T16:36:34.891Z,46.10
2023-01-23T16:39:01.869Z,47.40
2023-01-23T16:41:47.653Z,45.25
2023-01-23T16:44:33.390Z,39.45
2023-01-23T16:47:18.935Z,44.83
2023-01-23T16:50:04.810Z,46.20
2023-01-23T16:53:10.948Z,46.47
2023-01-23T16:55:59.023Z,43.53
2023-01-23T16:58:44.579Z,43.92
2023-01-23T17:01:33.600Z,43.00
2023-01-23T17:04:21.495Z,47.58
2023-01-23T17:07:17.622Z,46.20
2023-01-23T17:10:03.571Z,46.15
2023-01-23T17:12:56.018Z,55.35
2023-01-23T17:15:42.228Z,51.10
2023-01-23T17:18:33.447Z,52.85
2023-01-23T17:21:23.841Z,65.90
2023-01-23T17:24:17.929Z,49.05
2023-01-23T17:27:04.027Z,51.28
2023-01-23T17:29:49.466Z,49.45
2023-01-23T17:32:38.046Z,47.00
2023-01-23T17:35:34.560Z,47.17
2023-01-23T17:38:35.162Z,48.20
2023-01-23T17:41:20.694Z,51.63
2023-01-23T17:44:06.444Z,54.22
2023-01-23T17:46:54.674Z,52.25
2023-01-23T17:49:39.720Z,48.33
2023-01-23T17:52:26.727Z,44.42
2023-01-23T17:55:23.975Z,47.95
2023-01-23T17:58:10.156Z,54.25
2023-01-23T18:00:56.240Z,52.65
2023-01-23T18:03:41.914Z,49.63
2023-01-23T18:06:29.664Z,46.20
2023-01-23T18:09:15.850Z,50.15
2023-01-23T18:12:04.883Z,58.75
2023-01-23T18:15:06.401Z,56.30
2023-01-23T18:18:34.594Z,56.42
2023-01-23T18:21:21.186Z,52.70
2023-01-23T18:24:22.274Z,50.50
2023-01-23T18:27:30.225Z,54.80
2023-01-23T18:30:39.447Z,53.03
2023-01-23T18:33:25.862Z,54.17
2023-01-23T18:36:41.835Z,50.97
2023-01-23T18:40:01.886Z,48.45
2023-01-23T18:43:24.352Z,56.00
2023-01-23T18:46:20.355Z,54.13
2023-01-23T18:49:06.609Z,50.42
2023-01-23T18:52:12.792Z,53.53
2023-01-23T18:55:06.338Z,50.47
2023-01-23T18:58:10.051Z,40.78
2023-01-23T19:01:39.456Z,44.65
2023-01-23T19:04:38.682Z,46.17
2023-01-23T19:07:24.806Z,50.30
2023-01-23T19:10:22.182Z,54.35
2023-01-23T19:13:29.946Z,52.63
2023-01-23T19:16:37.105Z,45.22
2023-01-23T19:20:21.524Z,49.40
2023-01-23T19:23:19.324Z,43.65
2023-01-23T19:26:05.939Z,46.28
2023-01-23T19:28:51.934Z,49.67
2023-01-23T19:31:45.361Z,49.42
2023-01-23T19:34:34.216Z,45.13
2023-01-23T19:37:20.092Z,46.88
2023-01-23T19:40:10.623Z,42.35
2023-01-23T19:43:13.248Z,41.08
2023-01-23T19:46:00.201Z,48.70
2023-01-23T19:48:46.389Z,42.20
2023-01-23T19:51:33.362Z,46.08
2023-01-23T19:54:19.161Z,43.80
2023-01-23T19:57:04.657Z,43.13
2023-01-23T19:59:50.095Z,45.90
2023-01-23T20:02:35.843Z,49.03
2023-01-23T20:05:23.301Z,46.13
2023-01-23T20:08:10.040Z,45.45
2023-01-23T20:10:55.621Z,43.42
2023-01-23T20:13:42.096Z,53.78
2023-01-23T20:16:27.548Z,50.33
2023-01-23T20:19:15.629Z,53.10
2023-01-23T20:22:01.140Z,58.72
2023-01-23T20:24:46.732Z,56.47
2023-01-23T20:27:32.755Z,62.53
2023-01-23T20:30:20.188Z,51.03
2023-01-23T20:33:07.444Z,49.10
2023-01-23T20:35:54.205Z,48.95
2023-01-23T20:38:40.621Z,49.50
2023-01-23T20:41:26.107Z,59.05
2023-01-23T20:44:12.856Z,55.42
2023-01-23T20:46:58.231Z,52.40
2023-01-23T20:49:43.916Z,62.03
2023-01-23T20:52:48.486Z,53.78
2023-01-23T20:55:34.124Z,52.15
2023-01-23T20:58:38.349Z,48.65
2023-01-23T21:01:28.077Z,47.17
2023-01-23T21:04:13.915Z,52.05
2023-01-23T21:07:00.097Z,49.65
2023-01-23T21:09:46.052Z,47.53
2023-01-23T21:12:31.974Z,46.70
2023-01-23T21:15:17.754Z,43.25
2023-01-23T21:18:03.618Z,45.00
2023-01-23T21:20:48.924Z,40.67
2023-01-23T21:23:36.074Z,39.50
2023-01-23T21:26:25.859Z,36.80
2023-01-23T21:29:11.770Z,38.67
2023-01-23T21:31:58.575Z,40.38
2023-01-23T21:34:44.388Z,47.42
2023-01-23T21:37:30.055Z,47.00
2023-01-23T21:40:16.595Z,47.22
2023-01-23T21:43:02.319Z,43.42
2023-01-23T21:45:47.748Z,44.70
2023-01-23T21:48:34.544Z,49.15
2023-01-23T21:51:23.555Z,48.10
2023-01-23T21:54:09.850Z,44.80
2023-01-23T21:56:55.584Z,40.35
2023-01-23T22:00:01.351Z,38.70
2023-01-23T22:02:46.947Z,38.03
2023-01-23T22:05:35.620Z,35.00
2023-01-23T22:08:21.071Z,39.42
2023-01-23T22:11:08.583Z,40.03
2023-01-23T22:13:54.543Z,42.92
2023-01-23T22:16:49.753Z,40.90
2023-01-23T22:19:36.184Z,45.33
2023-01-23T22:22:21.935Z,38.42
2023-01-23T22:25:08.783Z,38.00
2023-01-23T22:27:54.411Z,34.53
2023-01-23T22:30:39.818Z,42.80
2023-01-23T22:33:35.782Z,40.17
2023-01-23T22:36:25.887Z,41.10
2023-01-23T22:39:16.127Z,40.92
2023-01-23T22:42:05.218Z,37.75
2023-01-23T22:44:51.419Z,44.70
2023-01-23T22:47:37.164Z,40.08
2023-01-23T22:50:23.380Z,41.45
2023-01-23T22:53:09.196Z,46.25
2023-01-23T22:55:54.451Z,41.72
2023-01-23T22:58:40.422Z,48.97
2023-01-23T23:01:29.440Z,44.72
2023-01-23T23:04:14.876Z,47.92
2023-01-23T23:07:00.356Z,42.75
2023-01-23T23:09:46.119Z,42.95
2023-01-23T23:12:31.662Z,43.70
2023-01-23T23:15:17.465Z,46.67
2023-01-23T23:18:03.207Z,50.28
2023-01-23T23:20:48.782Z,42.72
2023-01-23T23:23:35.353Z,38.80
2023-01-23T23:26:21.065Z,38.70
2023-01-23T23:29:06.965Z,40.58
2023-01-23T23:31:52.788Z,44.40
2023-01-23T23:34:38.614Z,39.83
2023-01-23T23:37:24.443Z,40.78
2023-01-23T23:40:11.057Z,42.22
2023-01-23T23:42:56.653Z,48.10
2023-01-23T23:45:55.425Z,39.67
2023-01-23T23:48:43.716Z,44.30
2023-01-23T23:51:29.596Z,41.80
2023-01-23T23:54:14.895Z,43.40
2023-01-23T23:57:00.259Z,40.45
2023-01-23T23:59:45.897Z,36.47
